sensor_id;sensor_type;location;lat;lon;timestamp;P1;durP1;ratioP1;P2;durP2;ratioP2
13303;SDS011;6720;51.958;4.540;2023-07-13T00:02:14;19.63;;;5.50;;
13303;SDS011;6720;51.958;4.540;2023-07-13T00:04:41;20.17;;;5.63;;
13303;SDS011;6720;51.958;4.540;2023-07-13T00:07:07;19.40;;;5.57;;
13303;SDS011;6720;51.958;4.540;2023-07-13T00:09:33;20.37;;;5.20;;
13303;SDS011;6720;51.958;4.540;2023-07-13T00:11:58;20.03;;;5.73;;
13303;SDS011;6720;51.958;4.540;2023-07-13T00:14:25;17.77;;;5.27;;
13303;SDS011;6720;51.958;4.540;2023-07-13T00:16:52;16.97;;;5.30;;
13303;SDS011;6720;51.958;4.540;2023-07-13T00:19:18;16.73;;;4.93;;
13303;SDS011;6720;51.958;4.540;2023-07-13T00:21:44;18.00;;;5.10;;
13303;SDS011;6720;51.958;4.540;2023-07-13T00:24:14;13.37;;;5.07;;
13303;SDS011;6720;51.958;4.540;2023-07-13T00:26:43;13.43;;;4.93;;
13303;SDS011;6720;51.958;4.540;2023-07-13T00:29:12;16.03;;;4.93;;
13303;SDS011;6720;51.958;4.540;2023-07-13T00:31:37;15.27;;;5.03;;
13303;SDS011;6720;51.958;4.540;2023-07-13T00:34:03;17.23;;;5.40;;
13303;SDS011;6720;51.958;4.540;2023-07-13T00:36:29;17.23;;;5.13;;
13303;SDS011;6720;51.958;4.540;2023-07-13T00:38:56;16.80;;;4.90;;
13303;SDS011;6720;51.958;4.540;2023-07-13T00:41:21;16.17;;;5.30;;
13303;SDS011;6720;51.958;4.540;2023-07-13T00:43:47;15.80;;;5.07;;
13303;SDS011;6720;51.958;4.540;2023-07-13T00:46:15;16.20;;;4.53;;
13303;SDS011;6720;51.958;4.540;2023-07-13T00:48:48;13.80;;;4.50;;
13303;SDS011;6720;51.958;4.540;2023-07-13T00:51:19;17.17;;;4.60;;
13303;SDS011;6720;51.958;4.540;2023-07-13T00:53:50;17.37;;;5.23;;
13303;SDS011;6720;51.958;4.540;2023-07-13T00:56:17;18.83;;;5.10;;
13303;SDS011;6720;51.958;4.540;2023-07-13T00:58:43;12.30;;;4.70;;
13303;SDS011;6720;51.958;4.540;2023-07-13T01:01:10;16.60;;;5.00;;
13303;SDS011;6720;51.958;4.540;2023-07-13T01:03:37;13.90;;;4.90;;
13303;SDS011;6720;51.958;4.540;2023-07-13T01:06:05;22.70;;;5.13;;
13303;SDS011;6720;51.958;4.540;2023-07-13T01:08:31;20.70;;;5.67;;
13303;SDS011;6720;51.958;4.540;2023-07-13T01:10:57;18.70;;;5.73;;
13303;SDS011;6720;51.958;4.540;2023-07-13T01:13:23;13.57;;;5.33;;
13303;SDS011;6720;51.958;4.540;2023-07-13T01:15:50;17.83;;;5.20;;
13303;SDS011;6720;51.958;4.540;2023-07-13T01:18:19;20.43;;;5.77;;
13303;SDS011;6720;51.958;4.540;2023-07-13T01:20:56;12.70;;;4.40;;
13303;SDS011;6720;51.958;4.540;2023-07-13T01:23:23;20.93;;;7.13;;
13303;SDS011;6720;51.958;4.540;2023-07-13T01:25:50;15.80;;;5.07;;
13303;SDS011;6720;51.958;4.540;2023-07-13T01:28:17;17.17;;;4.83;;
13303;SDS011;6720;51.958;4.540;2023-07-13T01:30:43;15.17;;;4.27;;
13303;SDS011;6720;51.958;4.540;2023-07-13T01:33:11;15.50;;;4.40;;
13303;SDS011;6720;51.958;4.540;2023-07-13T01:35:41;13.10;;;4.23;;
13303;SDS011;6720;51.958;4.540;2023-07-13T01:38:08;8.40;;;3.27;;
13303;SDS011;6720;51.958;4.540;2023-07-13T01:40:37;10.03;;;3.63;;
13303;SDS011;6720;51.958;4.540;2023-07-13T01:43:03;10.00;;;3.80;;
13303;SDS011;6720;51.958;4.540;2023-07-13T01:45:29;13.00;;;3.80;;
13303;SDS011;6720;51.958;4.540;2023-07-13T01:47:55;8.57;;;3.37;;
13303;SDS011;6720;51.958;4.540;2023-07-13T01:50:21;9.37;;;3.40;;
13303;SDS011;6720;51.958;4.540;2023-07-13T01:52:46;8.83;;;2.43;;
13303;SDS011;6720;51.958;4.540;2023-07-13T01:55:12;5.00;;;2.20;;
13303;SDS011;6720;51.958;4.540;2023-07-13T01:57:38;7.50;;;2.50;;
13303;SDS011;6720;51.958;4.540;2023-07-13T02:00:08;7.30;;;2.63;;
13303;SDS011;6720;51.958;4.540;2023-07-13T02:02:35;4.80;;;2.70;;
13303;SDS011;6720;51.958;4.540;2023-07-13T02:05:00;6.23;;;2.53;;
13303;SDS011;6720;51.958;4.540;2023-07-13T02:07:26;5.50;;;2.93;;
13303;SDS011;6720;51.958;4.540;2023-07-13T02:09:51;6.93;;;2.70;;
13303;SDS011;6720;51.958;4.540;2023-07-13T02:12:17;3.17;;;2.43;;
13303;SDS011;6720;51.958;4.540;2023-07-13T02:14:42;8.47;;;3.40;;
13303;SDS011;6720;51.958;4.540;2023-07-13T02:17:09;7.97;;;2.67;;
13303;SDS011;6720;51.958;4.540;2023-07-13T02:19:34;6.83;;;2.90;;
13303;SDS011;6720;51.958;4.540;2023-07-13T02:22:00;9.97;;;3.27;;
13303;SDS011;6720;51.958;4.540;2023-07-13T02:24:25;10.17;;;3.27;;
13303;SDS011;6720;51.958;4.540;2023-07-13T02:26:52;9.37;;;3.20;;
13303;SDS011;6720;51.958;4.540;2023-07-13T02:29:17;10.73;;;4.00;;
13303;SDS011;6720;51.958;4.540;2023-07-13T02:31:43;11.40;;;3.93;;
13303;SDS011;6720;51.958;4.540;2023-07-13T02:34:08;12.57;;;4.13;;
13303;SDS011;6720;51.958;4.540;2023-07-13T02:36:34;8.53;;;3.90;;
13303;SDS011;6720;51.958;4.540;2023-07-13T02:39:03;14.17;;;4.10;;
13303;SDS011;6720;51.958;4.540;2023-07-13T02:41:30;9.23;;;4.10;;
13303;SDS011;6720;51.958;4.540;2023-07-13T02:43:57;15.53;;;4.43;;
13303;SDS011;6720;51.958;4.540;2023-07-13T02:46:28;14.13;;;4.43;;
13303;SDS011;6720;51.958;4.540;2023-07-13T02:48:54;14.73;;;4.83;;
13303;SDS011;6720;51.958;4.540;2023-07-13T02:51:19;15.77;;;5.37;;
13303;SDS011;6720;51.958;4.540;2023-07-13T02:53:45;13.30;;;4.50;;
13303;SDS011;6720;51.958;4.540;2023-07-13T02:56:10;17.73;;;5.07;;
13303;SDS011;6720;51.958;4.540;2023-07-13T02:58:36;15.23;;;4.77;;
13303;SDS011;6720;51.958;4.540;2023-07-13T03:01:06;17.07;;;5.17;;
13303;SDS011;6720;51.958;4.540;2023-07-13T03:03:33;16.50;;;5.00;;
13303;SDS011;6720;51.958;4.540;2023-07-13T03:05:59;18.00;;;5.43;;
13303;SDS011;6720;51.958;4.540;2023-07-13T03:08:27;16.67;;;5.20;;
13303;SDS011;6720;51.958;4.540;2023-07-13T03:11:01;22.23;;;7.63;;
13303;SDS011;6720;51.958;4.540;2023-07-13T03:13:28;17.87;;;6.60;;
13303;SDS011;6720;51.958;4.540;2023-07-13T03:15:54;18.33;;;5.23;;
13303;SDS011;6720;51.958;4.540;2023-07-13T03:18:22;17.10;;;5.63;;
13303;SDS011;6720;51.958;4.540;2023-07-13T03:20:51;15.60;;;5.20;;
13303;SDS011;6720;51.958;4.540;2023-07-13T03:23:18;18.13;;;6.20;;
13303;SDS011;6720;51.958;4.540;2023-07-13T03:25:44;17.10;;;5.23;;
13303;SDS011;6720;51.958;4.540;2023-07-13T03:28:13;18.43;;;5.33;;
13303;SDS011;6720;51.958;4.540;2023-07-13T03:30:39;18.03;;;5.40;;
13303;SDS011;6720;51.958;4.540;2023-07-13T03:33:05;12.97;;;4.90;;
13303;SDS011;6720;51.958;4.540;2023-07-13T03:35:31;14.27;;;5.20;;
13303;SDS011;6720;51.958;4.540;2023-07-13T03:37:57;18.00;;;6.87;;
13303;SDS011;6720;51.958;4.540;2023-07-13T03:40:25;22.90;;;5.47;;
13303;SDS011;6720;51.958;4.540;2023-07-13T03:42:52;19.37;;;7.67;;
13303;SDS011;6720;51.958;4.540;2023-07-13T03:45:17;19.50;;;5.80;;
13303;SDS011;6720;51.958;4.540;2023-07-13T03:47:44;19.00;;;5.73;;
13303;SDS011;6720;51.958;4.540;2023-07-13T03:50:09;19.00;;;5.93;;
13303;SDS011;6720;51.958;4.540;2023-07-13T03:52:35;20.73;;;6.07;;
13303;SDS011;6720;51.958;4.540;2023-07-13T03:55:01;17.37;;;6.40;;
13303;SDS011;6720;51.958;4.540;2023-07-13T03:57:26;21.33;;;6.33;;
13303;SDS011;6720;51.958;4.540;2023-07-13T03:59:52;17.47;;;5.73;;
13303;SDS011;6720;51.958;4.540;2023-07-13T04:02:18;22.00;;;6.37;;
13303;SDS011;6720;51.958;4.540;2023-07-13T04:04:43;22.70;;;7.50;;
13303;SDS011;6720;51.958;4.540;2023-07-13T04:07:09;20.03;;;6.30;;
13303;SDS011;6720;51.958;4.540;2023-07-13T04:09:35;21.97;;;9.03;;
13303;SDS011;6720;51.958;4.540;2023-07-13T04:12:01;20.17;;;6.60;;
13303;SDS011;6720;51.958;4.540;2023-07-13T04:14:26;19.30;;;6.47;;
13303;SDS011;6720;51.958;4.540;2023-07-13T04:16:52;22.10;;;7.10;;
13303;SDS011;6720;51.958;4.540;2023-07-13T04:19:19;21.90;;;7.33;;
13303;SDS011;6720;51.958;4.540;2023-07-13T04:21:45;17.37;;;6.20;;
13303;SDS011;6720;51.958;4.540;2023-07-13T04:24:11;20.67;;;7.33;;
13303;SDS011;6720;51.958;4.540;2023-07-13T04:26:36;19.57;;;6.93;;
13303;SDS011;6720;51.958;4.540;2023-07-13T04:29:03;19.00;;;6.43;;
13303;SDS011;6720;51.958;4.540;2023-07-13T04:31:30;19.47;;;6.17;;
13303;SDS011;6720;51.958;4.540;2023-07-13T04:33:55;20.63;;;6.50;;
13303;SDS011;6720;51.958;4.540;2023-07-13T04:36:21;29.53;;;12.27;;
13303;SDS011;6720;51.958;4.540;2023-07-13T04:38:47;19.47;;;6.47;;
13303;SDS011;6720;51.958;4.540;2023-07-13T04:41:14;22.23;;;7.80;;
13303;SDS011;6720;51.958;4.540;2023-07-13T04:43:40;17.97;;;6.57;;
13303;SDS011;6720;51.958;4.540;2023-07-13T04:46:07;20.60;;;6.27;;
13303;SDS011;6720;51.958;4.540;2023-07-13T04:48:36;16.43;;;6.33;;
13303;SDS011;6720;51.958;4.540;2023-07-13T04:51:02;20.63;;;7.73;;
13303;SDS011;6720;51.958;4.540;2023-07-13T04:53:28;21.60;;;8.40;;
13303;SDS011;6720;51.958;4.540;2023-07-13T04:55:53;21.37;;;6.70;;
13303;SDS011;6720;51.958;4.540;2023-07-13T04:58:20;17.73;;;7.17;;
13303;SDS011;6720;51.958;4.540;2023-07-13T05:00:46;18.07;;;6.53;;
13303;SDS011;6720;51.958;4.540;2023-07-13T05:03:12;18.83;;;6.37;;
13303;SDS011;6720;51.958;4.540;2023-07-13T05:05:38;22.60;;;7.10;;
13303;SDS011;6720;51.958;4.540;2023-07-13T05:08:05;21.90;;;10.70;;
13303;SDS011;6720;51.958;4.540;2023-07-13T05:10:32;18.23;;;6.40;;
13303;SDS011;6720;51.958;4.540;2023-07-13T05:12:58;16.50;;;6.27;;
13303;SDS011;6720;51.958;4.540;2023-07-13T05:15:23;16.57;;;6.10;;
13303;SDS011;6720;51.958;4.540;2023-07-13T05:17:50;21.20;;;6.63;;
13303;SDS011;6720;51.958;4.540;2023-07-13T05:20:16;18.07;;;6.20;;
13303;SDS011;6720;51.958;4.540;2023-07-13T05:22:43;17.50;;;7.60;;
13303;SDS011;6720;51.958;4.540;2023-07-13T05:25:08;21.70;;;7.17;;
13303;SDS011;6720;51.958;4.540;2023-07-13T05:27:35;21.90;;;8.47;;
13303;SDS011;6720;51.958;4.540;2023-07-13T05:30:01;15.77;;;6.37;;
13303;SDS011;6720;51.958;4.540;2023-07-13T05:32:28;20.70;;;9.30;;
13303;SDS011;6720;51.958;4.540;2023-07-13T05:34:54;21.67;;;7.73;;
13303;SDS011;6720;51.958;4.540;2023-07-13T05:37:19;21.77;;;6.80;;
13303;SDS011;6720;51.958;4.540;2023-07-13T05:39:45;18.03;;;6.40;;
13303;SDS011;6720;51.958;4.540;2023-07-13T05:42:10;16.47;;;5.73;;
13303;SDS011;6720;51.958;4.540;2023-07-13T05:44:36;17.77;;;5.40;;
13303;SDS011;6720;51.958;4.540;2023-07-13T05:47:02;18.40;;;5.87;;
13303;SDS011;6720;51.958;4.540;2023-07-13T05:49:27;17.70;;;6.00;;
13303;SDS011;6720;51.958;4.540;2023-07-13T05:51:55;20.03;;;6.53;;
13303;SDS011;6720;51.958;4.540;2023-07-13T05:54:21;21.40;;;7.00;;
13303;SDS011;6720;51.958;4.540;2023-07-13T05:56:46;18.77;;;6.87;;
13303;SDS011;6720;51.958;4.540;2023-07-13T05:59:12;16.40;;;6.33;;
13303;SDS011;6720;51.958;4.540;2023-07-13T06:01:37;16.77;;;6.37;;
13303;SDS011;6720;51.958;4.540;2023-07-13T06:04:03;10.43;;;4.20;;
13303;SDS011;6720;51.958;4.540;2023-07-13T06:06:28;6.63;;;3.73;;
13303;SDS011;6720;51.958;4.540;2023-07-13T06:08:54;7.40;;;3.80;;
13303;SDS011;6720;51.958;4.540;2023-07-13T06:11:21;7.53;;;4.03;;
13303;SDS011;6720;51.958;4.540;2023-07-13T06:13:47;6.27;;;3.40;;
13303;SDS011;6720;51.958;4.540;2023-07-13T06:16:13;6.50;;;3.73;;
13303;SDS011;6720;51.958;4.540;2023-07-13T06:18:40;7.70;;;3.77;;
13303;SDS011;6720;51.958;4.540;2023-07-13T06:21:10;6.27;;;3.70;;
13303;SDS011;6720;51.958;4.540;2023-07-13T06:23:38;10.50;;;4.57;;
13303;SDS011;6720;51.958;4.540;2023-07-13T06:26:04;7.23;;;4.43;;
13303;SDS011;6720;51.958;4.540;2023-07-13T06:28:30;9.40;;;4.50;;
13303;SDS011;6720;51.958;4.540;2023-07-13T06:30:57;9.13;;;4.10;;
13303;SDS011;6720;51.958;4.540;2023-07-13T06:33:23;7.53;;;4.90;;
13303;SDS011;6720;51.958;4.540;2023-07-13T06:35:48;9.00;;;4.17;;
13303;SDS011;6720;51.958;4.540;2023-07-13T06:38:14;10.20;;;5.97;;
13303;SDS011;6720;51.958;4.540;2023-07-13T06:40:39;7.90;;;4.63;;
13303;SDS011;6720;51.958;4.540;2023-07-13T06:43:06;10.67;;;4.87;;
13303;SDS011;6720;51.958;4.540;2023-07-13T06:45:33;7.73;;;4.17;;
13303;SDS011;6720;51.958;4.540;2023-07-13T06:48:05;9.40;;;4.60;;
13303;SDS011;6720;51.958;4.540;2023-07-13T06:50:30;9.60;;;4.87;;
13303;SDS011;6720;51.958;4.540;2023-07-13T06:52:56;9.90;;;5.50;;
13303;SDS011;6720;51.958;4.540;2023-07-13T06:55:21;10.23;;;4.90;;
13303;SDS011;6720;51.958;4.540;2023-07-13T06:57:47;8.53;;;4.57;;
13303;SDS011;6720;51.958;4.540;2023-07-13T07:00:12;7.80;;;4.50;;
13303;SDS011;6720;51.958;4.540;2023-07-13T07:02:38;7.37;;;4.40;;
13303;SDS011;6720;51.958;4.540;2023-07-13T07:05:04;9.93;;;4.80;;
13303;SDS011;6720;51.958;4.540;2023-07-13T07:07:30;9.10;;;4.70;;
13303;SDS011;6720;51.958;4.540;2023-07-13T07:09:55;6.43;;;3.73;;
13303;SDS011;6720;51.958;4.540;2023-07-13T07:12:21;7.90;;;4.33;;
13303;SDS011;6720;51.958;4.540;2023-07-13T07:14:46;6.93;;;3.97;;
13303;SDS011;6720;51.958;4.540;2023-07-13T07:17:12;8.77;;;4.53;;
13303;SDS011;6720;51.958;4.540;2023-07-13T07:19:37;6.87;;;4.20;;
13303;SDS011;6720;51.958;4.540;2023-07-13T07:22:03;8.60;;;3.90;;
13303;SDS011;6720;51.958;4.540;2023-07-13T07:24:29;6.43;;;4.07;;
13303;SDS011;6720;51.958;4.540;2023-07-13T07:26:54;7.20;;;4.23;;
13303;SDS011;6720;51.958;4.540;2023-07-13T07:29:20;9.40;;;4.00;;
13303;SDS011;6720;51.958;4.540;2023-07-13T07:31:47;7.67;;;4.10;;
13303;SDS011;6720;51.958;4.540;2023-07-13T07:34:12;7.73;;;3.70;;
13303;SDS011;6720;51.958;4.540;2023-07-13T07:36:38;8.87;;;3.80;;
13303;SDS011;6720;51.958;4.540;2023-07-13T07:39:03;7.20;;;3.80;;
13303;SDS011;6720;51.958;4.540;2023-07-13T07:41:29;6.83;;;3.70;;
13303;SDS011;6720;51.958;4.540;2023-07-13T07:43:55;5.33;;;3.53;;
13303;SDS011;6720;51.958;4.540;2023-07-13T07:46:20;7.93;;;3.87;;
13303;SDS011;6720;51.958;4.540;2023-07-13T07:48:46;7.43;;;4.27;;
13303;SDS011;6720;51.958;4.540;2023-07-13T07:51:11;6.40;;;3.57;;
13303;SDS011;6720;51.958;4.540;2023-07-13T07:53:37;7.63;;;4.07;;
13303;SDS011;6720;51.958;4.540;2023-07-13T07:56:02;8.83;;;4.10;;
13303;SDS011;6720;51.958;4.540;2023-07-13T07:58:28;8.37;;;4.63;;
13303;SDS011;6720;51.958;4.540;2023-07-13T08:00:53;7.20;;;4.40;;
13303;SDS011;6720;51.958;4.540;2023-07-13T08:03:19;9.23;;;4.80;;
13303;SDS011;6720;51.958;4.540;2023-07-13T08:05:44;9.40;;;4.93;;
13303;SDS011;6720;51.958;4.540;2023-07-13T08:08:10;8.40;;;4.50;;
13303;SDS011;6720;51.958;4.540;2023-07-13T08:10:36;10.47;;;5.10;;
13303;SDS011;6720;51.958;4.540;2023-07-13T08:13:02;8.80;;;4.90;;
13303;SDS011;6720;51.958;4.540;2023-07-13T08:15:28;5.77;;;4.30;;
13303;SDS011;6720;51.958;4.540;2023-07-13T08:17:54;6.90;;;3.90;;
13303;SDS011;6720;51.958;4.540;2023-07-13T08:20:19;7.83;;;4.03;;
13303;SDS011;6720;51.958;4.540;2023-07-13T08:22:45;9.17;;;3.77;;
13303;SDS011;6720;51.958;4.540;2023-07-13T08:25:11;6.20;;;3.93;;
13303;SDS011;6720;51.958;4.540;2023-07-13T08:27:36;6.93;;;3.50;;
13303;SDS011;6720;51.958;4.540;2023-07-13T08:30:03;5.97;;;3.97;;
13303;SDS011;6720;51.958;4.540;2023-07-13T08:32:31;11.07;;;4.57;;
13303;SDS011;6720;51.958;4.540;2023-07-13T08:34:56;9.47;;;4.60;;
13303;SDS011;6720;51.958;4.540;2023-07-13T08:37:23;6.80;;;4.00;;
13303;SDS011;6720;51.958;4.540;2023-07-13T08:39:49;10.73;;;4.30;;
13303;SDS011;6720;51.958;4.540;2023-07-13T08:47:48;9.97;;;4.43;;
13303;SDS011;6720;51.958;4.540;2023-07-13T08:50:19;7.07;;;4.03;;
13303;SDS011;6720;51.958;4.540;2023-07-13T08:52:49;7.63;;;4.43;;
13303;SDS011;6720;51.958;4.540;2023-07-13T08:55:15;8.00;;;4.10;;
13303;SDS011;6720;51.958;4.540;2023-07-13T08:57:44;5.90;;;3.97;;
13303;SDS011;6720;51.958;4.540;2023-07-13T09:00:13;8.77;;;4.70;;
13303;SDS011;6720;51.958;4.540;2023-07-13T09:05:45;10.17;;;4.20;;
13303;SDS011;6720;51.958;4.540;2023-07-13T09:11:03;5.80;;;3.70;;
13303;SDS011;6720;51.958;4.540;2023-07-13T09:15:59;6.00;;;3.93;;
13303;SDS011;6720;51.958;4.540;2023-07-13T09:18:33;4.63;;;3.77;;
13303;SDS011;6720;51.958;4.540;2023-07-13T09:21:43;6.47;;;4.07;;
13303;SDS011;6720;51.958;4.540;2023-07-13T09:23:56;8.87;;;4.43;;
13303;SDS011;6720;51.958;4.540;2023-07-13T09:26:26;7.23;;;4.30;;
13303;SDS011;6720;51.958;4.540;2023-07-13T09:28:57;8.37;;;4.10;;
13303;SDS011;6720;51.958;4.540;2023-07-13T09:31:40;7.10;;;4.00;;
13303;SDS011;6720;51.958;4.540;2023-07-13T09:34:11;5.27;;;4.20;;
13303;SDS011;6720;51.958;4.540;2023-07-13T09:36:38;7.33;;;4.30;;
13303;SDS011;6720;51.958;4.540;2023-07-13T09:41:55;6.87;;;4.50;;
13303;SDS011;6720;51.958;4.540;2023-07-13T09:44:28;6.83;;;4.67;;
13303;SDS011;6720;51.958;4.540;2023-07-13T09:46:56;7.50;;;4.73;;
13303;SDS011;6720;51.958;4.540;2023-07-13T09:49:26;5.80;;;4.60;;
13303;SDS011;6720;51.958;4.540;2023-07-13T09:52:00;7.77;;;4.60;;
13303;SDS011;6720;51.958;4.540;2023-07-13T09:54:32;8.60;;;5.23;;
13303;SDS011;6720;51.958;4.540;2023-07-13T09:57:00;7.60;;;5.07;;
13303;SDS011;6720;51.958;4.540;2023-07-13T09:59:32;8.47;;;4.93;;
13303;SDS011;6720;51.958;4.540;2023-07-13T10:02:30;10.67;;;4.73;;
13303;SDS011;6720;51.958;4.540;2023-07-13T10:05:16;8.60;;;5.13;;
13303;SDS011;6720;51.958;4.540;2023-07-13T10:08:36;12.10;;;4.90;;
13303;SDS011;6720;51.958;4.540;2023-07-13T10:13:54;8.67;;;5.13;;
13303;SDS011;6720;51.958;4.540;2023-07-13T10:16:25;7.57;;;4.80;;
13303;SDS011;6720;51.958;4.540;2023-07-13T10:18:58;9.93;;;5.10;;
13303;SDS011;6720;51.958;4.540;2023-07-13T10:21:30;7.13;;;5.03;;
13303;SDS011;6720;51.958;4.540;2023-07-13T10:24:15;7.27;;;4.73;;
13303;SDS011;6720;51.958;4.540;2023-07-13T10:27:31;10.40;;;4.63;;
13303;SDS011;6720;51.958;4.540;2023-07-13T10:29:43;7.17;;;4.03;;
13303;SDS011;6720;51.958;4.540;2023-07-13T10:32:12;6.60;;;4.10;;
13303;SDS011;6720;51.958;4.540;2023-07-13T10:34:38;7.03;;;4.53;;
13303;SDS011;6720;51.958;4.540;2023-07-13T10:37:05;5.07;;;3.90;;
13303;SDS011;6720;51.958;4.540;2023-07-13T10:39:37;6.43;;;3.60;;
13303;SDS011;6720;51.958;4.540;2023-07-13T10:42:05;8.07;;;4.03;;
13303;SDS011;6720;51.958;4.540;2023-07-13T10:44:34;8.53;;;3.40;;
13303;SDS011;6720;51.958;4.540;2023-07-13T10:47:02;5.67;;;3.57;;
13303;SDS011;6720;51.958;4.540;2023-07-13T10:49:33;4.57;;;3.40;;
13303;SDS011;6720;51.958;4.540;2023-07-13T10:52:01;7.17;;;3.53;;
13303;SDS011;6720;51.958;4.540;2023-07-13T10:57:06;4.60;;;3.60;;
13303;SDS011;6720;51.958;4.540;2023-07-13T10:59:33;7.47;;;3.80;;
13303;SDS011;6720;51.958;4.540;2023-07-13T11:04:29;7.03;;;3.67;;
13303;SDS011;6720;51.958;4.540;2023-07-13T11:07:19;5.07;;;3.33;;
13303;SDS011;6720;51.958;4.540;2023-07-13T11:09:58;5.37;;;3.00;;
13303;SDS011;6720;51.958;4.540;2023-07-13T11:20:39;4.07;;;3.10;;
13303;SDS011;6720;51.958;4.540;2023-07-13T11:25:37;5.70;;;3.43;;
13303;SDS011;6720;51.958;4.540;2023-07-13T11:30:38;5.37;;;3.20;;
13303;SDS011;6720;51.958;4.540;2023-07-13T11:35:44;4.73;;;3.10;;
13303;SDS011;6720;51.958;4.540;2023-07-13T11:41:14;5.67;;;3.67;;
13303;SDS011;6720;51.958;4.540;2023-07-13T11:43:42;7.37;;;5.27;;
13303;SDS011;6720;51.958;4.540;2023-07-13T11:46:20;4.30;;;3.00;;
13303;SDS011;6720;51.958;4.540;2023-07-13T11:48:49;4.43;;;2.80;;
13303;SDS011;6720;51.958;4.540;2023-07-13T11:51:20;5.17;;;3.37;;
13303;SDS011;6720;51.958;4.540;2023-07-13T11:53:50;6.07;;;3.30;;
13303;SDS011;6720;51.958;4.540;2023-07-13T11:56:16;20.20;;;11.00;;
13303;SDS011;6720;51.958;4.540;2023-07-13T11:58:42;22.57;;;10.57;;
13303;SDS011;6720;51.958;4.540;2023-07-13T12:01:16;7.83;;;4.03;;
13303;SDS011;6720;51.958;4.540;2023-07-13T12:03:45;6.73;;;3.90;;
13303;SDS011;6720;51.958;4.540;2023-07-13T12:06:21;8.43;;;4.30;;
13303;SDS011;6720;51.958;4.540;2023-07-13T12:09:10;5.47;;;3.63;;
13303;SDS011;6720;51.958;4.540;2023-07-13T12:12:01;4.70;;;3.10;;
13303;SDS011;6720;51.958;4.540;2023-07-13T12:14:27;22.97;;;12.13;;
13303;SDS011;6720;51.958;4.540;2023-07-13T12:16:53;20.03;;;10.67;;
13303;SDS011;6720;51.958;4.540;2023-07-13T12:19:20;6.17;;;3.50;;
13303;SDS011;6720;51.958;4.540;2023-07-13T12:21:47;6.97;;;3.80;;
13303;SDS011;6720;51.958;4.540;2023-07-13T12:24:15;13.13;;;6.73;;
13303;SDS011;6720;51.958;4.540;2023-07-13T12:26:48;15.40;;;9.57;;
13303;SDS011;6720;51.958;4.540;2023-07-13T12:29:17;20.27;;;11.77;;
13303;SDS011;6720;51.958;4.540;2023-07-13T12:31:44;14.63;;;8.87;;
13303;SDS011;6720;51.958;4.540;2023-07-13T12:34:12;36.97;;;22.57;;
13303;SDS011;6720;51.958;4.540;2023-07-13T12:36:40;6.07;;;3.77;;
13303;SDS011;6720;51.958;4.540;2023-07-13T12:39:22;6.83;;;4.47;;
13303;SDS011;6720;51.958;4.540;2023-07-13T12:44:53;7.73;;;4.37;;
13303;SDS011;6720;51.958;4.540;2023-07-13T12:47:22;8.57;;;5.47;;
13303;SDS011;6720;51.958;4.540;2023-07-13T12:49:49;13.70;;;9.40;;
13303;SDS011;6720;51.958;4.540;2023-07-13T12:52:20;24.17;;;15.43;;
13303;SDS011;6720;51.958;4.540;2023-07-13T12:54:58;4.87;;;3.10;;
13303;SDS011;6720;51.958;4.540;2023-07-13T12:57:28;8.20;;;4.23;;
13303;SDS011;6720;51.958;4.540;2023-07-13T13:00:03;9.77;;;6.67;;
13303;SDS011;6720;51.958;4.540;2023-07-13T13:02:30;4.97;;;3.20;;
13303;SDS011;6720;51.958;4.540;2023-07-13T13:05:00;6.43;;;3.33;;
13303;SDS011;6720;51.958;4.540;2023-07-13T13:07:28;4.23;;;2.90;;
13303;SDS011;6720;51.958;4.540;2023-07-13T13:09:54;4.40;;;2.70;;
13303;SDS011;6720;51.958;4.540;2023-07-13T13:12:20;6.73;;;3.67;;
13303;SDS011;6720;51.958;4.540;2023-07-13T13:14:46;4.50;;;2.70;;
13303;SDS011;6720;51.958;4.540;2023-07-13T13:17:24;7.10;;;2.80;;
13303;SDS011;6720;51.958;4.540;2023-07-13T13:19:52;7.13;;;3.53;;
13303;SDS011;6720;51.958;4.540;2023-07-13T13:22:21;6.17;;;3.70;;
13303;SDS011;6720;51.958;4.540;2023-07-13T13:24:46;9.57;;;5.97;;
13303;SDS011;6720;51.958;4.540;2023-07-13T13:27:16;4.53;;;2.93;;
13303;SDS011;6720;51.958;4.540;2023-07-13T13:29:43;6.37;;;4.10;;
13303;SDS011;6720;51.958;4.540;2023-07-13T13:32:11;3.47;;;2.60;;
13303;SDS011;6720;51.958;4.540;2023-07-13T13:34:38;6.47;;;3.67;;
13303;SDS011;6720;51.958;4.540;2023-07-13T13:37:04;6.00;;;3.00;;
13303;SDS011;6720;51.958;4.540;2023-07-13T13:39:40;8.20;;;3.10;;
13303;SDS011;6720;51.958;4.540;2023-07-13T13:42:08;4.87;;;2.40;;
13303;SDS011;6720;51.958;4.540;2023-07-13T13:44:34;7.30;;;2.97;;
13303;SDS011;6720;51.958;4.540;2023-07-13T13:47:00;5.47;;;3.20;;
13303;SDS011;6720;51.958;4.540;2023-07-13T13:49:27;4.63;;;2.90;;
13303;SDS011;6720;51.958;4.540;2023-07-13T13:51:54;3.97;;;2.93;;
13303;SDS011;6720;51.958;4.540;2023-07-13T13:54:21;4.40;;;3.07;;
13303;SDS011;6720;51.958;4.540;2023-07-13T13:56:49;5.80;;;4.03;;
13303;SDS011;6720;51.958;4.540;2023-07-13T13:59:16;5.23;;;2.80;;
13303;SDS011;6720;51.958;4.540;2023-07-13T14:01:43;15.73;;;7.80;;
13303;SDS011;6720;51.958;4.540;2023-07-13T14:04:14;8.07;;;4.87;;
13303;SDS011;6720;51.958;4.540;2023-07-13T14:06:42;3.13;;;2.30;;
13303;SDS011;6720;51.958;4.540;2023-07-13T14:09:10;4.00;;;2.40;;
13303;SDS011;6720;51.958;4.540;2023-07-13T14:11:38;4.40;;;3.37;;
13303;SDS011;6720;51.958;4.540;2023-07-13T14:14:08;6.70;;;4.33;;
13303;SDS011;6720;51.958;4.540;2023-07-13T14:16:39;3.57;;;2.93;;
13303;SDS011;6720;51.958;4.540;2023-07-13T14:19:07;4.73;;;3.03;;
13303;SDS011;6720;51.958;4.540;2023-07-13T14:21:36;7.87;;;4.20;;
13303;SDS011;6720;51.958;4.540;2023-07-13T14:24:02;8.53;;;5.03;;
13303;SDS011;6720;51.958;4.540;2023-07-13T14:26:28;4.80;;;3.70;;
13303;SDS011;6720;51.958;4.540;2023-07-13T14:28:56;4.73;;;2.70;;
13303;SDS011;6720;51.958;4.540;2023-07-13T14:31:23;3.60;;;2.53;;
13303;SDS011;6720;51.958;4.540;2023-07-13T14:33:49;4.53;;;3.00;;
13303;SDS011;6720;51.958;4.540;2023-07-13T14:36:31;4.07;;;2.87;;
13303;SDS011;6720;51.958;4.540;2023-07-13T14:39:00;2.73;;;2.27;;
13303;SDS011;6720;51.958;4.540;2023-07-13T14:41:36;4.40;;;2.77;;
13303;SDS011;6720;51.958;4.540;2023-07-13T14:44:04;3.60;;;2.40;;
13303;SDS011;6720;51.958;4.540;2023-07-13T14:46:36;5.70;;;3.53;;
13303;SDS011;6720;51.958;4.540;2023-07-13T14:49:06;3.60;;;2.20;;
13303;SDS011;6720;51.958;4.540;2023-07-13T14:51:39;5.50;;;2.50;;
13303;SDS011;6720;51.958;4.540;2023-07-13T14:54:05;3.37;;;2.70;;
13303;SDS011;6720;51.958;4.540;2023-07-13T14:56:33;5.87;;;4.00;;
13303;SDS011;6720;51.958;4.540;2023-07-13T14:58:59;5.63;;;3.67;;
13303;SDS011;6720;51.958;4.540;2023-07-13T15:01:25;3.93;;;2.57;;
13303;SDS011;6720;51.958;4.540;2023-07-13T15:03:51;5.23;;;3.17;;
13303;SDS011;6720;51.958;4.540;2023-07-13T15:06:18;5.07;;;2.80;;
13303;SDS011;6720;51.958;4.540;2023-07-13T15:08:44;7.80;;;3.87;;
13303;SDS011;6720;51.958;4.540;2023-07-13T15:11:10;5.70;;;3.30;;
13303;SDS011;6720;51.958;4.540;2023-07-13T15:13:37;4.70;;;2.20;;
13303;SDS011;6720;51.958;4.540;2023-07-13T15:16:04;5.20;;;3.40;;
13303;SDS011;6720;51.958;4.540;2023-07-13T15:18:38;6.33;;;3.27;;
13303;SDS011;6720;51.958;4.540;2023-07-13T15:21:08;4.80;;;2.60;;
13303;SDS011;6720;51.958;4.540;2023-07-13T15:23:35;5.00;;;2.30;;
13303;SDS011;6720;51.958;4.540;2023-07-13T15:26:00;14.03;;;8.17;;
13303;SDS011;6720;51.958;4.540;2023-07-13T15:28:26;15.30;;;10.40;;
13303;SDS011;6720;51.958;4.540;2023-07-13T15:30:52;16.43;;;11.10;;
13303;SDS011;6720;51.958;4.540;2023-07-13T15:33:27;14.43;;;10.00;;
13303;SDS011;6720;51.958;4.540;2023-07-13T15:35:54;3.57;;;2.53;;
13303;SDS011;6720;51.958;4.540;2023-07-13T15:38:22;5.50;;;3.97;;
13303;SDS011;6720;51.958;4.540;2023-07-13T15:40:49;20.30;;;12.37;;
13303;SDS011;6720;51.958;4.540;2023-07-13T15:43:16;6.10;;;3.23;;
13303;SDS011;6720;51.958;4.540;2023-07-13T15:45:42;11.47;;;8.63;;
13303;SDS011;6720;51.958;4.540;2023-07-13T15:48:16;6.70;;;4.50;;